Prostejov, Czech Republic
Current Conditions -  °F | °C
As of 8:00 AM on Thursday 29 Jan 2015 (Local Time) from LKTB Reporting Station
Moderate Snow Moderate Snow  
Wind Chill: 23°   Ceiling: 300
Heat Index: 30°   Visibility: 1.8mi
Dew Point: 30°   Wind: 7mph
Humidity: 100%   Direction: 180°S
Pressure: 29.47"   Gusts: NA
Location:  49.48°N, 17.12°E
Report Text: LKTB 290600Z 18006KT 3000 SN OVC003 M01/M01 Q0998 R28/591591TEMPO 5000 SN
Loading
Personal Weather Stations






























Interactive Weather Map New forecast layout! Learn more

10-Day Weather Forecast

Advertisements
Track Severe Weather on mobile